Flight Sim Network - SKCC Airport Info

    SKCC (Camilo Daza International Airport)  Login to use Map Selector
   

  RUNWAY INFORMATION    |    Airport Elevation : 1096ft    |    LAT : 7.92757  /  LON : -72.5115
Runway Number 02 / 20 Runway Width 148' Runway Length 6341'
Lighted Runway Yes Runway StatusOpen Runway Surface Asphalt
Runway Number 16 / 34 Runway Width 148' Runway Length 7700'
Lighted Runway Yes Runway StatusOpen Runway Surface Asphalt
  CLOSE ALTERNATE AIRPORTS
ICAODistanceAirport NameLongest RWRW SurfaceMAP
SVSA7NMSan Antonio Del Tachira Airport6135FTAsphalt
SVPM20NMParamillo Airport3571FTAsphalt
SVLF24NMLa Fria Airport6669FTAsphalt
SVSO36NMMayor Buenaventura Vivas International Airport9990FTAsphalt
SKTB44NMTibu4921FTAsphalt
SVEB46NMEl Guayabo del Zulia Airport3281FTAsphalt
SVCG49NMEl Cubo3450FTAsphalt
SKOC55NMAguas Claras Airport3937FTAsphalt
SKBG63NMPalonegro Airport7445FTAsphalt
SVVG65NMJuan Pablo Pérez Alfonso Airport10645FTAsphalt
  AIRPORT WEATHER
77°F | 25°C
Temperature
100%
Humidity
29" | 0mb
Pressure
3sm
Visibility
MVFR
Flight Rules
SCT @ 1200ft
Initial Clouds
BCFG
Conditions
Wind Info
4/25/24 12:00Z
Updated

SKCC 251200Z VRB02KT 6000 BCFG SCT012 BKN070 25/25 Q1013
  AIRPORT FREQUENCIES
NameFrequency
GROUND118.100
TOWER118.100
APPROACH119.900
DEPARTURE119.900
ICUC (RWY 15)109.900

Powered by Virtual Airlines Manager